»·PEaware :: AAL4538 KLAS-KSAN

AAL4538 :: KLAS-KSAN

FLIGHT INFORMATION

Flight Status: Arrived
Operator:
American Airlines
More flights by this operator :: More flights under this callsign
Pilot: Vasiliy S. (4053)
Aircraft: AIRBUS A320
(A320)
More flights by this aircraft type
Origin: KLAS McCarran Intl
United States
Destination: KSAN San Diego Intl-Lindbergh
United States
More flights between these airports :: More routes between these airports
Route: BOACH8 LVELL LUCKI1
File this flight plan on PilotEdge
Remarks: RMK / SIMBRIEF
Altitude:
(Current/Filed)
32,000ft
Speed:
(Current/Filed)
421kts
Departed: 04-Sep-20 10:20 AM
Arrived: 04-Sep-20 11:03 AM
Distance/Time
Traveled:
225nm/0:43
Distance/Time
To Go:
Arrived

Flight Plot

Page will automatically refresh every two minutes.

Flight plan parsing failed; only flown route is shown


Map Options




Map Legend


Flown Route
Filed Route
Departure Airport
Arrival Airport
Navaid (VOR, NDB)
Fix

Horizontal Profiles

Position Reports

Time Latitude Longitude Heading Altitude Ground
Speed
04-Sep-20 09:35 36.085770 -115.154653 145 2195ft 0kts
04-Sep-20 09:36 36.085770 -115.154653 145 2195ft 0kts
04-Sep-20 09:37 36.085770 -115.154653 145 2195ft 0kts
04-Sep-20 09:38 36.085770 -115.154653 145 2195ft 0kts
04-Sep-20 09:39 36.085770 -115.154653 145 2195ft 0kts
04-Sep-20 09:40 36.085770 -115.154653 145 2195ft 0kts
04-Sep-20 09:41 36.085770 -115.154653 145 2195ft 0kts
04-Sep-20 09:42 36.085770 -115.154653 145 2195ft 0kts
04-Sep-20 09:43 36.085770 -115.154653 145 2195ft 0kts
04-Sep-20 09:44 36.085770 -115.154653 145 2195ft 0kts
04-Sep-20 09:45 36.085770 -115.154653 145 2195ft 0kts
04-Sep-20 09:46 36.085770 -115.154653 145 2195ft 0kts
04-Sep-20 09:47 36.085770 -115.154653 145 2195ft 0kts
04-Sep-20 09:48 36.085770 -115.154653 145 2195ft 0kts
04-Sep-20 09:49 36.085770 -115.154653 145 2195ft 0kts
04-Sep-20 09:50 36.085770 -115.154653 145 2195ft 0kts
04-Sep-20 09:51 36.085770 -115.154653 145 2195ft 0kts
04-Sep-20 09:52 36.085770 -115.154653 145 2195ft 0kts
04-Sep-20 09:53 36.085770 -115.154653 145 2195ft 0kts
04-Sep-20 09:54 36.085770 -115.154653 145 2195ft 0kts
04-Sep-20 09:55 36.085770 -115.154653 145 2195ft 0kts
04-Sep-20 09:56 36.085770 -115.154653 145 2195ft 0kts
04-Sep-20 09:57 36.085770 -115.154653 145 2195ft 0kts
04-Sep-20 09:58 36.085770 -115.154653 145 2195ft 0kts
04-Sep-20 09:59 36.085770 -115.154653 145 2195ft 0kts
04-Sep-20 10:00 36.085770 -115.154653 145 2195ft 0kts
04-Sep-20 10:01 36.085770 -115.154653 145 2195ft 0kts
04-Sep-20 10:02 36.085770 -115.154653 145 2195ft 0kts
04-Sep-20 10:03 36.085770 -115.154653 145 2195ft 0kts
04-Sep-20 10:04 36.085770 -115.154653 145 2195ft 0kts
04-Sep-20 10:05 36.086130 -115.154964 145 2195ft 2kts
04-Sep-20 10:06 36.086575 -115.155348 144 2195ft 0kts
04-Sep-20 10:07 36.086575 -115.155348 144 2195ft 0kts
04-Sep-20 10:08 36.086575 -115.155348 144 2195ft 0kts
04-Sep-20 10:09 36.086575 -115.155348 144 2195ft 0kts
04-Sep-20 10:10 36.086574 -115.155348 144 2195ft 0kts
04-Sep-20 10:11 36.086713 -115.155053 3 2195ft 6kts
04-Sep-20 10:12 36.089675 -115.155004 359 2195ft 15kts
04-Sep-20 10:13 36.094000 -115.153995 25 2195ft 16kts
04-Sep-20 10:14 36.097496 -115.152018 6 2195ft 7kts
04-Sep-20 10:15 36.097917 -115.152252 310 2195ft 0kts
04-Sep-20 10:16 36.097917 -115.152252 310 2195ft 0kts
04-Sep-20 10:17 36.097918 -115.152253 310 2195ft 0kts
04-Sep-20 10:18 36.098179 -115.152852 295 2195ft 9kts
04-Sep-20 10:19 36.093976 -115.156238 204 2195ft 106kts
04-Sep-20 10:20 36.050939 -115.180426 205 4331ft 189kts
04-Sep-20 10:21 36.004087 -115.223229 243 5707ft 238kts
04-Sep-20 10:22 35.964861 -115.299237 209 7514ft 289kts
04-Sep-20 10:23 35.883833 -115.311897 183 10096ft 302kts
04-Sep-20 10:24 35.793623 -115.308246 172 11803ft 347kts
04-Sep-20 10:26 35.695623 -115.296559 173 14351ft 361kts
04-Sep-20 10:27 35.593033 -115.297915 180 16643ft 376kts
04-Sep-20 10:28 35.486298 -115.302194 180 18759ft 390kts
04-Sep-20 10:29 35.376042 -115.306609 180 20661ft 403kts
04-Sep-20 10:30 35.262309 -115.311064 180 22367ft 415kts
04-Sep-20 10:31 35.145090 -115.315688 180 23928ft 426kts
04-Sep-20 10:32 35.025279 -115.320363 180 25384ft 435kts
04-Sep-20 10:33 34.902908 -115.325130 180 26835ft 442kts
04-Sep-20 10:34 34.780798 -115.332344 190 28589ft 440kts
04-Sep-20 10:35 34.665446 -115.381602 200 30308ft 437kts
04-Sep-20 10:36 34.551339 -115.431051 198 31818ft 435kts
04-Sep-20 10:37 34.437907 -115.480747 198 32062ft 433kts
04-Sep-20 10:38 34.324495 -115.531140 205 32063ft 433kts
04-Sep-20 10:39 34.221261 -115.606741 210 32069ft 434kts
04-Sep-20 10:40 34.110509 -115.661751 199 32048ft 432kts
04-Sep-20 10:41 33.994266 -115.716759 200 32018ft 460kts
04-Sep-20 10:42 33.873269 -115.773926 201 31979ft 470kts
04-Sep-20 10:42 33.772907 -115.823936 201 31809ft 467kts
04-Sep-20 10:44 33.630753 -115.889994 200 27563ft 476kts
04-Sep-20 10:44 33.531942 -115.938455 208 25784ft 448kts
04-Sep-20 10:45 33.453934 -116.048821 236 23450ft 433kts
04-Sep-20 10:47 33.374853 -116.185382 233 20839ft 423kts
04-Sep-20 10:47 33.309565 -116.268299 205 19105ft 408kts
04-Sep-20 10:48 33.208061 -116.325049 203 17143ft 398kts
04-Sep-20 10:49 33.110040 -116.383262 203 15270ft 388kts
04-Sep-20 10:50 33.016643 -116.437603 203 14056ft 351kts
04-Sep-20 10:51 32.941768 -116.508210 218 12599ft 335kts
04-Sep-20 10:52 32.874622 -116.576200 217 11443ft 310kts
04-Sep-20 10:53 32.810365 -116.648258 228 9930ft 315kts
04-Sep-20 10:54 32.757695 -116.730538 237 8921ft 309kts
04-Sep-20 10:55 32.709118 -116.812909 242 7127ft 302kts
04-Sep-20 10:56 32.683046 -116.898005 250 6037ft 251kts
04-Sep-20 10:57 32.681416 -116.969425 296 4839ft 207kts
04-Sep-20 10:58 32.694904 -117.030487 287 3869ft 176kts
04-Sep-20 10:59 32.706591 -117.078476 287 2686ft 143kts
04-Sep-20 11:00 32.717479 -117.123294 286 1328ft 137kts
04-Sep-20 11:01 32.727854 -117.166117 285 337ft 133kts
04-Sep-20 11:02 32.735327 -117.197411 272 29ft 19kts
04-Sep-20 11:03 32.734930 -117.198846 252 29ft 0kts
04-Sep-20 11:04 32.734194 -117.199682 219 29ft 6kts
04-Sep-20 11:05 32.733956 -117.200503 256 29ft 0kts
04-Sep-20 11:06 32.733949 -117.200492 255 29ft 0kts
04-Sep-20 11:07 32.733949 -117.200492 255 29ft 0kts
04-Sep-20 11:08 32.733949 -117.200492 255 29ft 0kts
04-Sep-20 11:09 32.733949 -117.200492 255 29ft 0kts

Navigation Log

Ident Type
Flight plan parsing failed, navigation log unavailable